sensor_id;sensor_type;location;lat;lon;timestamp;temperature;humidity
56123;DHT22;42426;46.104;19.656;2023-11-19T00:01:54;128.10;2252.80
56123;DHT22;42426;46.104;19.656;2023-11-19T00:04:20;103.30;2227.20
56123;DHT22;42426;46.104;19.656;2023-11-19T00:06:46;103.30;2227.20
56123;DHT22;42426;46.104;19.656;2023-11-19T00:09:12;103.20;2227.20
56123;DHT22;42426;46.104;19.656;2023-11-19T00:11:38;103.20;2227.20
56123;DHT22;42426;46.104;19.656;2023-11-19T00:14:04;103.20;2227.20
56123;DHT22;42426;46.104;19.656;2023-11-19T00:16:30;103.20;2227.20
56123;DHT22;42426;46.104;19.656;2023-11-19T00:18:57;103.10;2227.20
56123;DHT22;42426;46.104;19.656;2023-11-19T00:21:24;103.10;2227.20
56123;DHT22;42426;46.104;19.656;2023-11-19T00:23:50;103.00;2227.20
56123;DHT22;42426;46.104;19.656;2023-11-19T00:26:15;103.00;2227.20
56123;DHT22;42426;46.104;19.656;2023-11-19T00:28:41;103.00;2227.20
56123;DHT22;42426;46.104;19.656;2023-11-19T00:31:08;102.90;2227.20
56123;DHT22;42426;46.104;19.656;2023-11-19T00:33:34;102.90;2227.20
56123;DHT22;42426;46.104;19.656;2023-11-19T00:36:00;102.90;2227.20
56123;DHT22;42426;46.104;19.656;2023-11-19T00:38:26;102.80;2227.20
56123;DHT22;42426;46.104;19.656;2023-11-19T00:40:51;102.80;2227.20
56123;DHT22;42426;46.104;19.656;2023-11-19T00:43:17;102.80;2227.20
56123;DHT22;42426;46.104;19.656;2023-11-19T00:45:44;102.80;2227.20
56123;DHT22;42426;46.104;19.656;2023-11-19T00:48:10;102.80;2227.20
56123;DHT22;42426;46.104;19.656;2023-11-19T00:50:36;102.80;2227.20
56123;DHT22;42426;46.104;19.656;2023-11-19T00:53:02;102.80;2227.20
56123;DHT22;42426;46.104;19.656;2023-11-19T00:55:30;102.70;2227.20
56123;DHT22;42426;46.104;19.656;2023-11-19T00:57:56;102.70;2227.20
56123;DHT22;42426;46.104;19.656;2023-11-19T01:00:23;102.70;2227.20
56123;DHT22;42426;46.104;19.656;2023-11-19T01:02:50;102.70;2227.20
56123;DHT22;42426;46.104;19.656;2023-11-19T01:05:15;102.70;2227.20
56123;DHT22;42426;46.104;19.656;2023-11-19T01:07:41;102.60;2227.20
56123;DHT22;42426;46.104;19.656;2023-11-19T01:10:07;102.60;2227.20
56123;DHT22;42426;46.104;19.656;2023-11-19T01:12:34;102.50;2227.20
56123;DHT22;42426;46.104;19.656;2023-11-19T01:15:00;102.50;2227.20
56123;DHT22;42426;46.104;19.656;2023-11-19T01:17:26;102.60;2227.20
56123;DHT22;42426;46.104;19.656;2023-11-19T01:19:52;102.60;2227.20
56123;DHT22;42426;46.104;19.656;2023-11-19T01:22:18;102.60;2227.20
56123;DHT22;42426;46.104;19.656;2023-11-19T01:24:44;102.50;2227.20
56123;DHT22;42426;46.104;19.656;2023-11-19T01:27:10;102.50;2227.20
56123;DHT22;42426;46.104;19.656;2023-11-19T01:29:37;102.40;2227.20
56123;DHT22;42426;46.104;19.656;2023-11-19T01:32:03;102.40;2227.20
56123;DHT22;42426;46.104;19.656;2023-11-19T01:34:29;102.40;2227.20
56123;DHT22;42426;46.104;19.656;2023-11-19T01:36:55;102.40;2227.20
56123;DHT22;42426;46.104;19.656;2023-11-19T01:39:21;77.70;2227.20
56123;DHT22;42426;46.104;19.656;2023-11-19T01:41:47;77.70;2227.20
56123;DHT22;42426;46.104;19.656;2023-11-19T01:44:13;77.70;2227.20
56123;DHT22;42426;46.104;19.656;2023-11-19T01:46:40;77.70;2227.20
56123;DHT22;42426;46.104;19.656;2023-11-19T01:49:07;77.70;2227.20
56123;DHT22;42426;46.104;19.656;2023-11-19T01:51:34;77.70;2227.20
56123;DHT22;42426;46.104;19.656;2023-11-19T01:54:00;102.40;2227.20
56123;DHT22;42426;46.104;19.656;2023-11-19T01:56:27;77.70;2227.20
56123;DHT22;42426;46.104;19.656;2023-11-19T01:58:54;77.70;2227.20
56123;DHT22;42426;46.104;19.656;2023-11-19T02:01:21;77.70;2227.20
56123;DHT22;42426;46.104;19.656;2023-11-19T02:03:47;77.70;2227.20
56123;DHT22;42426;46.104;19.656;2023-11-19T02:06:13;77.70;2227.20
56123;DHT22;42426;46.104;19.656;2023-11-19T02:08:39;77.70;2227.20
56123;DHT22;42426;46.104;19.656;2023-11-19T02:11:05;77.70;2227.20
56123;DHT22;42426;46.104;19.656;2023-11-19T02:13:33;77.70;2227.20
56123;DHT22;42426;46.104;19.656;2023-11-19T02:15:59;77.60;2227.20
56123;DHT22;42426;46.104;19.656;2023-11-19T02:18:27;77.60;2227.20
56123;DHT22;42426;46.104;19.656;2023-11-19T02:20:59;77.60;2227.20
56123;DHT22;42426;46.104;19.656;2023-11-19T02:23:29;77.60;2227.20
56123;DHT22;42426;46.104;19.656;2023-11-19T02:28:27;77.60;2227.20
56123;DHT22;42426;46.104;19.656;2023-11-19T02:30:53;77.60;2227.20
56123;DHT22;42426;46.104;19.656;2023-11-19T02:33:20;77.60;2227.20
56123;DHT22;42426;46.104;19.656;2023-11-19T02:35:46;77.60;2227.20
56123;DHT22;42426;46.104;19.656;2023-11-19T02:38:11;77.50;2227.20
56123;DHT22;42426;46.104;19.656;2023-11-19T02:40:39;77.50;2227.20
56123;DHT22;42426;46.104;19.656;2023-11-19T02:43:05;77.60;2227.20
56123;DHT22;42426;46.104;19.656;2023-11-19T02:45:32;77.50;2227.20
56123;DHT22;42426;46.104;19.656;2023-11-19T02:47:58;77.60;2227.20
56123;DHT22;42426;46.104;19.656;2023-11-19T02:50:27;77.50;2227.20
56123;DHT22;42426;46.104;19.656;2023-11-19T02:52:54;77.50;2227.20
56123;DHT22;42426;46.104;19.656;2023-11-19T02:55:23;77.50;2227.20
56123;DHT22;42426;46.104;19.656;2023-11-19T02:57:50;77.50;2227.20
56123;DHT22;42426;46.104;19.656;2023-11-19T03:00:17;77.50;2227.20
56123;DHT22;42426;46.104;19.656;2023-11-19T03:02:44;77.50;2227.20
56123;DHT22;42426;46.104;19.656;2023-11-19T03:05:14;77.50;2227.20
56123;DHT22;42426;46.104;19.656;2023-11-19T03:07:41;77.50;2227.20
56123;DHT22;42426;46.104;19.656;2023-11-19T03:10:09;77.50;2227.20
56123;DHT22;42426;46.104;19.656;2023-11-19T03:12:38;77.50;2227.20
56123;DHT22;42426;46.104;19.656;2023-11-19T03:15:05;77.50;2227.20
56123;DHT22;42426;46.104;19.656;2023-11-19T03:17:31;77.50;2227.20
56123;DHT22;42426;46.104;19.656;2023-11-19T03:19:57;77.50;2227.20
56123;DHT22;42426;46.104;19.656;2023-11-19T03:22:22;77.40;2227.20
56123;DHT22;42426;46.104;19.656;2023-11-19T03:24:51;77.40;2227.20
56123;DHT22;42426;46.104;19.656;2023-11-19T03:27:16;77.40;2227.20
56123;DHT22;42426;46.104;19.656;2023-11-19T03:29:42;77.40;2227.20
56123;DHT22;42426;46.104;19.656;2023-11-19T03:32:08;77.50;2227.20
56123;DHT22;42426;46.104;19.656;2023-11-19T03:34:35;77.50;2227.20
56123;DHT22;42426;46.104;19.656;2023-11-19T03:37:01;77.40;2227.20
56123;DHT22;42426;46.104;19.656;2023-11-19T03:39:28;77.30;2227.20
56123;DHT22;42426;46.104;19.656;2023-11-19T03:41:54;77.40;2227.20
56123;DHT22;42426;46.104;19.656;2023-11-19T03:44:20;77.40;2227.20
56123;DHT22;42426;46.104;19.656;2023-11-19T03:46:47;77.40;2227.20
56123;DHT22;42426;46.104;19.656;2023-11-19T03:49:12;77.30;2227.20
56123;DHT22;42426;46.104;19.656;2023-11-19T03:51:38;77.30;2227.20
56123;DHT22;42426;46.104;19.656;2023-11-19T03:54:04;77.30;2227.20
56123;DHT22;42426;46.104;19.656;2023-11-19T03:56:32;77.30;2227.20
56123;DHT22;42426;46.104;19.656;2023-11-19T04:01:25;77.40;2227.20
56123;DHT22;42426;46.104;19.656;2023-11-19T04:03:51;77.10;2227.20
56123;DHT22;42426;46.104;19.656;2023-11-19T04:06:17;77.10;2227.20
56123;DHT22;42426;46.104;19.656;2023-11-19T04:08:43;77.10;2227.20
56123;DHT22;42426;46.104;19.656;2023-11-19T04:11:10;77.10;2227.20
56123;DHT22;42426;46.104;19.656;2023-11-19T04:13:36;77.10;2227.20
56123;DHT22;42426;46.104;19.656;2023-11-19T04:16:02;77.10;2227.20
56123;DHT22;42426;46.104;19.656;2023-11-19T04:18:28;77.10;2227.20
56123;DHT22;42426;46.104;19.656;2023-11-19T04:20:54;77.10;2227.20
56123;DHT22;42426;46.104;19.656;2023-11-19T04:23:20;77.10;2227.20
56123;DHT22;42426;46.104;19.656;2023-11-19T04:25:46;77.10;2227.20
56123;DHT22;42426;46.104;19.656;2023-11-19T04:28:12;77.00;2227.20
56123;DHT22;42426;46.104;19.656;2023-11-19T04:30:37;77.00;2227.20
56123;DHT22;42426;46.104;19.656;2023-11-19T04:33:03;76.90;2227.20
56123;DHT22;42426;46.104;19.656;2023-11-19T04:35:29;76.80;2227.20
56123;DHT22;42426;46.104;19.656;2023-11-19T04:37:55;76.90;2227.20
56123;DHT22;42426;46.104;19.656;2023-11-19T04:40:23;76.80;2227.20
56123;DHT22;42426;46.104;19.656;2023-11-19T04:42:49;76.80;2227.20
56123;DHT22;42426;46.104;19.656;2023-11-19T04:45:15;76.80;2227.20
56123;DHT22;42426;46.104;19.656;2023-11-19T04:47:44;76.90;2227.20
56123;DHT22;42426;46.104;19.656;2023-11-19T04:50:10;76.90;2227.20
56123;DHT22;42426;46.104;19.656;2023-11-19T04:52:39;76.90;2227.20
56123;DHT22;42426;46.104;19.656;2023-11-19T04:55:10;76.80;2227.20
56123;DHT22;42426;46.104;19.656;2023-11-19T04:57:40;76.80;2227.20
56123;DHT22;42426;46.104;19.656;2023-11-19T05:00:06;76.80;2227.20
56123;DHT22;42426;46.104;19.656;2023-11-19T05:02:34;76.80;2227.20
56123;DHT22;42426;46.104;19.656;2023-11-19T05:05:01;76.80;2227.20
56123;DHT22;42426;46.104;19.656;2023-11-19T05:07:27;76.80;2227.20
